createdAt,value
2022-10-11T00:00:54.415Z,14.32
2022-10-11T00:03:57.483Z,14.19
2022-10-11T00:06:59.225Z,14.15
2022-10-11T00:10:00.904Z,14.13
2022-10-11T00:13:02.976Z,14.01
2022-10-11T00:16:08.776Z,14.05
2022-10-11T00:19:11.969Z,14.05
2022-10-11T00:22:13.728Z,14.18
2022-10-11T00:25:16.175Z,14.24
2022-10-11T00:28:17.820Z,14.13
2022-10-11T00:31:19.671Z,14.07
2022-10-11T00:34:22.781Z,14.10
2022-10-11T00:37:24.449Z,14.17
2022-10-11T00:40:26.251Z,14.10
2022-10-11T00:43:29.895Z,14.06
2022-10-11T00:46:32.053Z,14.06
2022-10-11T00:49:37.784Z,14.07
2022-10-11T00:52:43.381Z,14.02
2022-10-11T00:55:51.434Z,13.94
2022-10-11T00:58:56.898Z,13.97
2022-10-11T01:01:58.609Z,13.94
2022-10-11T01:05:27.742Z,13.96
2022-10-11T01:08:24.897Z,13.92
2022-10-11T01:11:29.792Z,13.93
2022-10-11T01:15:07.030Z,13.90
2022-10-11T01:18:14.552Z,13.89
2022-10-11T01:21:29.266Z,13.92
2022-10-11T01:24:53.211Z,13.92
2022-10-11T01:28:15.212Z,13.81
2022-10-11T01:31:24.739Z,13.82
2022-10-11T01:34:31.393Z,13.75
2022-10-11T01:37:37.095Z,13.80
2022-10-11T01:40:45.550Z,13.64
2022-10-11T01:43:49.143Z,13.69
2022-10-11T01:46:52.420Z,13.68
2022-10-11T01:49:56.266Z,13.64
2022-10-11T01:53:04.606Z,13.59
2022-10-11T01:56:19.752Z,13.46
2022-10-11T01:59:34.084Z,13.48
2022-10-11T02:02:49.725Z,13.53
2022-10-11T02:05:57.527Z,13.55
2022-10-11T02:09:08.270Z,13.47
2022-10-11T02:12:12.172Z,13.30
2022-10-11T02:15:15.957Z,13.25
2022-10-11T02:18:24.661Z,13.19
2022-10-11T02:21:27.532Z,13.15
2022-10-11T02:24:33.226Z,13.16
2022-10-11T02:27:38.649Z,13.17
2022-10-11T02:30:42.071Z,13.25
2022-10-11T02:33:52.341Z,13.22
2022-10-11T02:37:03.991Z,13.17
2022-10-11T02:40:13.447Z,13.23
2022-10-11T02:43:19.236Z,13.25
2022-10-11T02:46:22.034Z,13.22
2022-10-11T02:49:27.053Z,13.17
2022-10-11T02:52:28.790Z,13.02
2022-10-11T02:55:30.439Z,13.14
2022-10-11T02:58:32.027Z,12.88
2022-10-11T03:01:33.663Z,12.65
2022-10-11T03:04:36.785Z,12.65
2022-10-11T03:07:38.514Z,12.61
2022-10-11T03:10:40.873Z,12.58
2022-10-11T03:13:42.513Z,12.37
2022-10-11T03:16:44.158Z,12.28
2022-10-11T03:19:47.556Z,12.26
2022-10-11T03:22:49.194Z,12.27
2022-10-11T03:25:51.971Z,12.16
2022-10-11T03:28:53.725Z,12.14
2022-10-11T03:31:55.421Z,12.15
2022-10-11T03:34:58.380Z,12.08
2022-10-11T03:37:59.965Z,12.02
2022-10-11T03:41:01.745Z,11.92
2022-10-11T03:44:03.609Z,11.89
2022-10-11T03:47:05.415Z,11.86
2022-10-11T03:50:09.789Z,11.76
2022-10-11T03:53:11.508Z,11.68
2022-10-11T03:56:13.559Z,11.61
2022-10-11T03:59:15.516Z,11.54
2022-10-11T04:02:17.200Z,11.54
2022-10-11T04:05:20.309Z,11.54
2022-10-11T04:08:21.951Z,11.28
2022-10-11T04:11:23.671Z,11.25
2022-10-11T04:14:26.302Z,11.17
2022-10-11T04:17:28.068Z,11.06
2022-10-11T04:20:31.044Z,11.00
2022-10-11T04:23:33.719Z,10.93
2022-10-11T04:26:35.359Z,10.86
2022-10-11T04:29:37.008Z,10.87
2022-10-11T04:32:38.865Z,10.80
2022-10-11T04:35:41.892Z,10.75
2022-10-11T04:38:43.502Z,10.72
2022-10-11T04:41:45.234Z,10.64
2022-10-11T04:44:46.863Z,10.56
2022-10-11T04:47:48.909Z,10.56
2022-10-11T04:50:53.142Z,10.46
2022-10-11T04:53:54.842Z,10.36
2022-10-11T04:56:56.490Z,10.29
2022-10-11T04:59:58.101Z,10.20
2022-10-11T05:02:59.762Z,10.22
2022-10-11T05:06:05.975Z,10.23
2022-10-11T05:09:07.957Z,10.09
2022-10-11T05:12:09.956Z,10.14
2022-10-11T05:15:11.719Z,9.95
2022-10-11T05:18:13.445Z,9.96
2022-10-11T05:21:18.211Z,9.90
2022-10-11T05:24:19.684Z,9.90
2022-10-11T05:27:21.314Z,9.82
2022-10-11T05:30:22.984Z,9.82
2022-10-11T05:33:25.232Z,9.86
2022-10-11T05:36:28.278Z,9.72
2022-10-11T05:39:30.130Z,9.72
2022-10-11T05:42:31.854Z,9.70
2022-10-11T05:45:40.976Z,9.68
2022-10-11T05:48:42.679Z,9.56
2022-10-11T05:51:45.694Z,9.48
2022-10-11T05:54:47.334Z,9.48
2022-10-11T05:57:52.351Z,9.53
2022-10-11T06:00:54.821Z,9.53
2022-10-11T06:03:56.482Z,9.66
2022-10-11T06:06:59.533Z,9.55
2022-10-11T06:10:01.603Z,9.61
2022-10-11T06:13:03.389Z,9.49
2022-10-11T06:16:06.700Z,9.54
2022-10-11T06:19:08.802Z,9.56
2022-10-11T06:22:12.461Z,9.59
2022-10-11T06:25:14.172Z,9.55
2022-10-11T06:28:15.834Z,9.50
2022-10-11T06:31:17.693Z,9.48
2022-10-11T06:34:19.342Z,9.49
2022-10-11T06:37:22.381Z,9.46
2022-10-11T06:40:24.282Z,9.44
2022-10-11T06:43:25.976Z,9.40
2022-10-11T06:46:28.271Z,9.39
2022-10-11T06:49:29.910Z,9.34
2022-10-11T06:52:33.233Z,9.37
2022-10-11T06:55:35.140Z,9.40
2022-10-11T06:58:37.312Z,9.45
2022-10-11T07:01:39.547Z,9.57
2022-10-11T07:04:41.292Z,9.65
2022-10-11T07:07:44.462Z,9.65
2022-10-11T07:10:46.129Z,9.62
